Time;durP1;ratioP1;P1;durP2;ratioP2;P2;SDS_P1;SDS_P2;PMS_P1;PMS_P2;Temp;Humidity;BMP_temperature;BMP_pressure;BME280_temperature;BME280_humidity;BME280_pressure;Samples;Min_cycle;Max_cycle;Signal;HPM_P1;HPM_P2
2024/04/27 00:02:04;;;;;;;;;;;;;;;;;;5307087;26;19938;-72
2024/04/27 00:04:33;;;;;;;;;;;;;;;;;;5305304;26;19935;-72
2024/04/27 00:07:01;;;;;;;;;;;;;;;;;;5306677;26;19930;-72
2024/04/27 00:09:30;;;;;;;;;;;;;;;;;;5303310;26;19937;-72
2024/04/27 00:12:02;;;;;;;;;;;;;;;;;;5306245;27;19938;-72
2024/04/27 00:14:31;;;;;;;;;;;;;;;;;;5305162;27;19931;-72
2024/04/27 00:17:00;;;;;;;;;;;;;;;;;;5300163;27;20354;-72
2024/04/27 00:19:28;;;;;;;;;;;;;;;;;;5294923;26;19942;-72
2024/04/27 00:21:57;;;;;;;;;;;;;;;;;;5305045;26;19943;-72
2024/04/27 00:24:26;;;;;;;;;;;;;;;;;;5304236;27;19930;-72
2024/04/27 00:26:52;;;;;;;;;;;;;;;;;;5300569;27;19931;-73
2024/04/27 00:29:23;;;;;;;;;;;;;;;;;;5308345;26;20261;-72
2024/04/27 00:31:51;;;;;;;;;;;;;;;;;;5307227;26;19938;-72
2024/04/27 00:34:20;;;;;;;;;;;;;;;;;;5305666;26;19931;-72
2024/04/27 00:36:49;;;;;;;;;;;;;;;;;;5299425;26;20403;-72
2024/04/27 00:39:18;;;;;;;;;;;;;;;;;;5305190;26;19930;-72
2024/04/27 00:41:47;;;;;;;;;;;;;;;;;;5306314;26;19938;-72
2024/04/27 00:44:15;;;;;;;;;;;;;;;;;;5306227;26;19973;-71
2024/04/27 00:46:44;;;;;;;;;;;;;;;;;;5306119;26;20392;-73
2024/04/27 00:49:13;;;;;;;;;;;;;;;;;;5304705;27;19934;-72
2024/04/27 00:51:41;;;;;;;;;;;;;;;;;;5305636;27;19930;-73
2024/04/27 00:54:10;;;;;;;;;;;;;;;;;;5304227;26;20370;-72
2024/04/27 00:56:39;;;;;;;;;;;;;;;;;;5305050;26;19931;-72
2024/04/27 00:59:08;;;;;;;;;;;;;;;;;;5305836;26;19941;-71
2024/04/27 01:01:36;;;;;;;;;;;;;;;;;;5298085;27;20384;-72
2024/04/27 01:04:05;;;;;;;;;;;;;;;;;;5308298;26;20298;-71
2024/04/27 01:06:34;;;;;;;;;;;;;;;;;;5308829;26;19931;-72
2024/04/27 01:09:02;;;;;;;;;;;;;;;;;;5307956;26;19931;-72
2024/04/27 01:11:32;;;;;;;;;;;;;;;;;;5305742;26;20513;-72
2024/04/27 01:14:01;;;;;;;;;;;;;;;;;;5307478;26;19934;-73
2024/04/27 01:16:30;;;;;;;;;;;;;;;;;;5308857;27;20381;-74
2024/04/27 01:19:01;;;;;;;;;;;;;;;;;;5308355;27;20393;-73
2024/04/27 01:21:29;;;;;;;;;;;;;;;;;;5307956;26;19973;-75
2024/04/27 01:23:58;;;;;;;;;;;;;;;;;;5307182;27;20335;-72
2024/04/27 01:26:27;;;;;;;;;;;;;;;;;;5304313;27;19937;-71
2024/04/27 01:28:56;;;;;;;;;;;;;;;;;;5305832;27;19931;-72
2024/04/27 01:31:24;;;;;;;;;;;;;;;;;;5304115;26;20405;-72
2024/04/27 01:33:53;;;;;;;;;;;;;;;;;;5306054;26;19941;-75
2024/04/27 01:36:19;;;;;;;;;;;;;;;;;;5305620;26;19938;-72
2024/04/27 01:38:48;;;;;;;;;;;;;;;;;;5306539;26;19942;-72
2024/04/27 01:41:17;;;;;;;;;;;;;;;;;;5307514;26;19937;-73
2024/04/27 01:43:45;;;;;;;;;;;;;;;;;;5307126;26;19937;-72
2024/04/27 01:46:14;;;;;;;;;;;;;;;;;;5308592;26;19931;-72
2024/04/27 01:48:43;;;;;;;;;;;;;;;;;;5305010;26;19937;-71
2024/04/27 01:51:12;;;;;;;;;;;;;;;;;;5305483;26;20005;-72
2024/04/27 01:53:41;;;;;;;;;;;;;;;;;;5305217;26;19930;-72
2024/04/27 01:56:10;;;;;;;;;;;;;;;;;;5305863;26;20277;-72
2024/04/27 01:58:39;;;;;;;;;;;;;;;;;;5303973;27;19938;-72
2024/04/27 02:01:08;;;;;;;;;;;;;;;;;;5284058;27;19930;-72
2024/04/27 02:03:37;;;;;;;;;;;;;;;;;;5298978;26;19930;-71
2024/04/27 02:06:05;;;;;;;;;;;;;;;;;;5304854;26;19937;-72
2024/04/27 02:08:34;;;;;;;;;;;;;;;;;;5305367;26;19935;-72
2024/04/27 02:11:03;;;;;;;;;;;;;;;;;;5303778;26;20447;-72
2024/04/27 02:13:32;;;;;;;;;;;;;;;;;;5300410;26;19939;-73
2024/04/27 02:21:30;;;;;;;;;;;;;;;;;;5300479;27;19936;-72
2024/04/27 02:23:59;;;;;;;;;;;;;;;;;;5300689;27;19930;-72
2024/04/27 02:26:28;;;;;;;;;;;;;;;;;;5298825;26;20383;-73
2024/04/27 02:28:56;;;;;;;;;;;;;;;;;;5294042;26;19934;-73
2024/04/27 02:31:25;;;;;;;;;;;;;;;;;;5295866;27;19930;-73
2024/04/27 02:33:54;;;;;;;;;;;;;;;;;;5301120;27;20447;-72
2024/04/27 02:36:23;;;;;;;;;;;;;;;;;;5297766;26;19941;-72
2024/04/27 02:38:51;;;;;;;;;;;;;;;;;;5298773;26;19930;-72
2024/04/27 02:41:20;;;;;;;;;;;;;;;;;;5301363;26;19967;-72
2024/04/27 02:43:49;;;;;;;;;;;;;;;;;;5295682;27;19943;-72
2024/04/27 02:46:18;;;;;;;;;;;;;;;;;;5304582;27;19937;-72
2024/04/27 02:48:47;;;;;;;;;;;;;;;;;;5301661;26;19931;-72
2024/04/27 02:51:16;;;;;;;;;;;;;;;;;;5299447;26;19938;-73
2024/04/27 02:53:45;;;;;;;;;;;;;;;;;;5290189;27;19945;-72
2024/04/27 02:56:15;;;;;;;;;;;;;;;;;;5296192;27;19942;-72
2024/04/27 02:58:43;;;;;;;;;;;;;;;;;;5301341;26;20008;-73
2024/04/27 03:01:13;;;;;;;;;;;;;;;;;;5300415;26;19930;-72
2024/04/27 03:03:41;;;;;;;;;;;;;;;;;;5301508;26;19942;-72
2024/04/27 03:06:10;;;;;;;;;;;;;;;;;;5296828;27;20384;-71
2024/04/27 03:08:39;;;;;;;;;;;;;;;;;;5303400;26;19930;-71
2024/04/27 03:11:08;;;;;;;;;;;;;;;;;;5302507;27;19941;-72
2024/04/27 03:13:37;;;;;;;;;;;;;;;;;;5297930;27;20439;-73
2024/04/27 03:16:06;;;;;;;;;;;;;;;;;;5301018;27;19931;-72
2024/04/27 03:18:34;;;;;;;;;;;;;;;;;;5291951;26;19932;-73
2024/04/27 03:21:03;;;;;;;;;;;;;;;;;;5281795;27;19943;-72
2024/04/27 03:23:32;;;;;;;;;;;;;;;;;;5301232;27;19935;-72
2024/04/27 03:26:02;;;;;;;;;;;;;;;;;;5301456;26;19931;-73
2024/04/27 03:28:30;;;;;;;;;;;;;;;;;;5283892;26;19931;-72
2024/04/27 03:30:59;;;;;;;;;;;;;;;;;;5300226;27;20424;-72
2024/04/27 03:33:28;;;;;;;;;;;;;;;;;;5296328;27;19943;-73
2024/04/27 03:35:57;;;;;;;;;;;;;;;;;;5295583;27;20006;-71
2024/04/27 03:38:25;;;;;;;;;;;;;;;;;;5300672;26;20428;-72
2024/04/27 03:40:54;;;;;;;;;;;;;;;;;;5295766;26;19943;-73
2024/04/27 03:43:23;;;;;;;;;;;;;;;;;;5293828;26;19934;-72
2024/04/27 03:45:52;;;;;;;;;;;;;;;;;;5299285;26;20582;-71
2024/04/27 03:48:25;;;;;;;;;;;;;;;;;;5297769;26;19941;-72
2024/04/27 03:50:53;;;;;;;;;;;;;;;;;;5301396;27;19989;-72
2024/04/27 03:53:22;;;;;;;;;;;;;;;;;;5300943;26;20179;-71
2024/04/27 03:55:51;;;;;;;;;;;;;;;;;;5298382;27;20351;-70
2024/04/27 03:58:19;;;;;;;;;;;;;;;;;;5301937;26;19930;-71
2024/04/27 04:00:48;;;;;;;;;;;;;;;;;;5301276;27;19962;-72
2024/04/27 04:03:17;;;;;;;;;;;;;;;;;;5299503;26;19931;-72
2024/04/27 04:05:46;;;;;;;;;;;;;;;;;;5302105;26;20423;-72
2024/04/27 04:08:16;;;;;;;;;;;;;;;;;;5296358;27;20404;-73
2024/04/27 04:10:46;;;;;;;;;;;;;;;;;;5304110;26;19939;-72
2024/04/27 04:13:15;;;;;;;;;;;;;;;;;;5300426;26;20277;-71
2024/04/27 04:15:44;;;;;;;;;;;;;;;;;;5300520;27;20297;-71
2024/04/27 04:18:13;;;;;;;;;;;;;;;;;;5304443;26;19931;-72
2024/04/27 04:20:41;;;;;;;;;;;;;;;;;;5298991;26;19931;-72
2024/04/27 04:23:10;;;;;;;;;;;;;;;;;;5298211;27;20279;-72
2024/04/27 04:25:39;;;;;;;;;;;;;;;;;;5287034;26;19942;-72
2024/04/27 04:28:07;;;;;;;;;;;;;;;;;;5301662;27;20258;-72
2024/04/27 04:30:36;;;;;;;;;;;;;;;;;;5305816;27;20373;-72
2024/04/27 04:33:05;;;;;;;;;;;;;;;;;;5302446;27;19930;-71
2024/04/27 04:35:34;;;;;;;;;;;;;;;;;;5298505;26;19931;-72
2024/04/27 04:38:02;;;;;;;;;;;;;;;;;;5299551;27;19946;-71
2024/04/27 04:40:31;;;;;;;;;;;;;;;;;;5297119;27;20392;-72
2024/04/27 04:43:00;;;;;;;;;;;;;;;;;;5302096;27;19937;-72
2024/04/27 04:45:29;;;;;;;;;;;;;;;;;;5293084;27;19942;-72
2024/04/27 04:47:57;;;;;;;;;;;;;;;;;;5287363;27;19931;-72
2024/04/27 04:50:26;;;;;;;;;;;;;;;;;;5302642;27;19931;-72
2024/04/27 04:52:55;;;;;;;;;;;;;;;;;;5303863;26;19942;-73
2024/04/27 04:55:23;;;;;;;;;;;;;;;;;;5301931;27;19954;-73
2024/04/27 04:57:52;;;;;;;;;;;;;;;;;;5297406;26;19938;-73
2024/04/27 05:00:21;;;;;;;;;;;;;;;;;;5294181;26;19931;-72
2024/04/27 05:02:50;;;;;;;;;;;;;;;;;;5298816;27;19985;-73
2024/04/27 05:05:18;;;;;;;;;;;;;;;;;;5298089;27;20257;-72
2024/04/27 05:07:47;;;;;;;;;;;;;;;;;;5299594;27;20382;-73
2024/04/27 05:10:16;;;;;;;;;;;;;;;;;;5303240;26;20130;-75
2024/04/27 05:12:45;;;;;;;;;;;;;;;;;;5305619;27;19937;-74
2024/04/27 05:15:14;;;;;;;;;;;;;;;;;;5303259;26;19935;-72
2024/04/27 05:17:42;;;;;;;;;;;;;;;;;;5298700;26;19931;-72
2024/04/27 05:20:11;;;;;;;;;;;;;;;;;;5300629;26;19930;-73
2024/04/27 05:22:40;;;;;;;;;;;;;;;;;;5301687;26;20450;-71
2024/04/27 05:25:08;;;;;;;;;;;;;;;;;;5302611;27;19938;-74
2024/04/27 05:27:37;;;;;;;;;;;;;;;;;;5302875;26;19937;-74
2024/04/27 05:30:06;;;;;;;;;;;;;;;;;;5301133;27;19931;-73
2024/04/27 05:32:35;;;;;;;;;;;;;;;;;;5298633;26;19938;-73
2024/04/27 05:35:03;;;;;;;;;;;;;;;;;;5300123;27;19942;-72
2024/04/27 05:37:32;;;;;;;;;;;;;;;;;;5301326;27;20375;-72
2024/04/27 05:40:01;;;;;;;;;;;;;;;;;;5299094;27;19942;-70
2024/04/27 05:42:29;;;;;;;;;;;;;;;;;;5300096;26;19937;-73
2024/04/27 05:44:58;;;;;;;;;;;;;;;;;;5287662;26;19930;-72
2024/04/27 05:47:27;;;;;;;;;;;;;;;;;;5302774;27;19941;-73
2024/04/27 05:49:56;;;;;;;;;;;;;;;;;;5300530;26;19930;-73
2024/04/27 05:52:25;;;;;;;;;;;;;;;;;;5302180;26;19931;-74
2024/04/27 05:54:53;;;;;;;;;;;;;;;;;;5294230;26;19931;-73
2024/04/27 05:57:22;;;;;;;;;;;;;;;;;;5301938;26;20000;-73
2024/04/27 05:59:51;;;;;;;;;;;;;;;;;;5300925;26;19934;-72
2024/04/27 06:02:19;;;;;;;;;;;;;;;;;;5296814;27;19931;-73
2024/04/27 06:04:48;;;;;;;;;;;;;;;;;;5297703;26;19949;-73
2024/04/27 06:07:17;;;;;;;;;;;;;;;;;;5299012;27;19931;-73
2024/04/27 06:09:46;;;;;;;;;;;;;;;;;;5295165;27;19960;-72
2024/04/27 06:12:15;;;;;;;;;;;;;;;;;;5295178;27;19935;-74
2024/04/27 06:14:47;;;;;;;;;;;;;;;;;;5298978;26;19938;-73
2024/04/27 06:17:16;;;;;;;;;;;;;;;;;;5297876;27;19938;-72
2024/04/27 06:19:45;;;;;;;;;;;;;;;;;;5296338;27;19938;-72
2024/04/27 06:22:13;;;;;;;;;;;;;;;;;;5292135;26;19931;-71
2024/04/27 06:24:42;;;;;;;;;;;;;;;;;;5295215;27;19930;-71
2024/04/27 06:27:11;;;;;;;;;;;;;;;;;;5295802;27;19954;-71
2024/04/27 06:29:39;;;;;;;;;;;;;;;;;;5296319;27;19931;-71
2024/04/27 06:32:08;;;;;;;;;;;;;;;;;;5301101;26;20372;-70
2024/04/27 06:34:37;;;;;;;;;;;;;;;;;;5291394;26;20278;-72
2024/04/27 06:37:06;;;;;;;;;;;;;;;;;;5298745;27;20257;-72
2024/04/27 06:39:34;;;;;;;;;;;;;;;;;;5302311;26;20399;-73
2024/04/27 06:42:03;;;;;;;;;;;;;;;;;;5295698;26;19938;-70
2024/04/27 06:44:34;;;;;;;;;;;;;;;;;;5294194;26;19930;-70
2024/04/27 06:47:03;;;;;;;;;;;;;;;;;;5297432;27;20004;-71
2024/04/27 06:49:31;;;;;;;;;;;;;;;;;;5298863;27;19937;-72
2024/04/27 06:52:01;;;;;;;;;;;;;;;;;;5299732;26;19993;-73
2024/04/27 06:54:30;;;;;;;;;;;;;;;;;;5301998;27;19938;-71
2024/04/27 06:56:59;;;;;;;;;;;;;;;;;;5297679;26;19931;-72
2024/04/27 06:59:27;;;;;;;;;;;;;;;;;;5293571;27;19930;-75
2024/04/27 07:01:56;;;;;;;;;;;;;;;;;;5299718;26;20238;-68
2024/04/27 07:04:25;;;;;;;;;;;;;;;;;;5298497;26;20389;-69
2024/04/27 07:06:53;;;;;;;;;;;;;;;;;;5297508;26;19938;-69
2024/04/27 07:09:22;;;;;;;;;;;;;;;;;;5300810;26;19953;-69
2024/04/27 07:11:51;;;;;;;;;;;;;;;;;;5297508;26;19937;-69
2024/04/27 07:14:19;;;;;;;;;;;;;;;;;;5295724;27;19945;-69
2024/04/27 07:16:48;;;;;;;;;;;;;;;;;;5298566;26;19931;-69
2024/04/27 07:19:17;;;;;;;;;;;;;;;;;;5294533;26;19930;-69
2024/04/27 07:21:45;;;;;;;;;;;;;;;;;;5290982;26;20460;-67
2024/04/27 07:24:14;;;;;;;;;;;;;;;;;;5287724;26;19930;-67
2024/04/27 07:26:43;;;;;;;;;;;;;;;;;;5284203;26;19939;-66
2024/04/27 07:29:12;;;;;;;;;;;;;;;;;;5291018;26;19938;-70
2024/04/27 07:31:40;;;;;;;;;;;;;;;;;;5289235;27;19938;-70
2024/04/27 07:34:10;;;;;;;;;;;;;;;;;;5290176;27;19938;-71
2024/04/27 07:36:39;;;;;;;;;;;;;;;;;;5288255;27;19931;-68
2024/04/27 07:39:07;;;;;;;;;;;;;;;;;;5297786;27;20364;-69
2024/04/27 07:41:36;;;;;;;;;;;;;;;;;;5291005;27;19939;-69
2024/04/27 07:44:05;;;;;;;;;;;;;;;;;;5290828;27;19942;-69
2024/04/27 07:46:34;;;;;;;;;;;;;;;;;;5294237;27;19937;-67
2024/04/27 07:49:02;;;;;;;;;;;;;;;;;;5292104;27;20247;-67
2024/04/27 07:51:34;;;;;;;;;;;;;;;;;;5292011;26;20022;-67
2024/04/27 07:54:03;;;;;;;;;;;;;;;;;;5291254;27;20315;-71
2024/04/27 07:56:31;;;;;;;;;;;;;;;;;;5301408;26;20364;-69
2024/04/27 07:59:00;;;;;;;;;;;;;;;;;;5298269;26;19930;-69
2024/04/27 08:01:29;;;;;;;;;;;;;;;;;;5301954;26;19930;-69
2024/04/27 08:03:57;;;;;;;;;;;;;;;;;;5303364;26;20421;-68
2024/04/27 08:06:26;;;;;;;;;;;;;;;;;;5293453;27;19937;-69
2024/04/27 08:08:55;;;;;;;;;;;;;;;;;;5294618;26;19935;-68
2024/04/27 08:11:24;;;;;;;;;;;;;;;;;;5297918;26;19942;-67
2024/04/27 08:13:52;;;;;;;;;;;;;;;;;;5302027;27;20389;-68
2024/04/27 08:16:21;;;;;;;;;;;;;;;;;;5304685;26;19954;-68
2024/04/27 08:18:50;;;;;;;;;;;;;;;;;;5302971;27;19930;-68
2024/04/27 08:21:18;;;;;;;;;;;;;;;;;;5303972;27;19934;-68
2024/04/27 08:23:47;;;;;;;;;;;;;;;;;;5304346;27;19965;-68
2024/04/27 08:26:16;;;;;;;;;;;;;;;;;;5304808;26;19985;-67
2024/04/27 08:28:45;;;;;;;;;;;;;;;;;;5302162;26;20004;-67
2024/04/27 08:31:13;;;;;;;;;;;;;;;;;;5301783;26;20355;-67
2024/04/27 08:33:42;;;;;;;;;;;;;;;;;;5304109;27;19931;-67
2024/04/27 08:36:11;;;;;;;;;;;;;;;;;;5304049;27;20361;-66
2024/04/27 08:38:39;;;;;;;;;;;;;;;;;;5304141;26;19942;-67
2024/04/27 08:41:08;;;;;;;;;;;;;;;;;;5304674;27;19930;-68
2024/04/27 08:43:37;;;;;;;;;;;;;;;;;;5299985;27;19930;-68
2024/04/27 08:46:06;;;;;;;;;;;;;;;;;;5303709;26;20362;-72
2024/04/27 08:48:34;;;;;;;;;;;;;;;;;;5298891;26;19934;-69
2024/04/27 08:51:03;;;;;;;;;;;;;;;;;;5301820;26;19942;-70
2024/04/27 08:53:32;;;;;;;;;;;;;;;;;;5300163;27;19931;-70
2024/04/27 08:56:00;;;;;;;;;;;;;;;;;;5303948;26;19954;-66
2024/04/27 08:58:29;;;;;;;;;;;;;;;;;;5301869;26;19931;-68
2024/04/27 09:00:58;;;;;;;;;;;;;;;;;;5298459;26;19969;-65
2024/04/27 09:03:27;;;;;;;;;;;;;;;;;;5298179;27;19930;-68
2024/04/27 09:05:55;;;;;;;;;;;;;;;;;;5305131;26;20352;-69
2024/04/27 09:08:24;;;;;;;;;;;;;;;;;;5299935;26;20219;-67
2024/04/27 09:10:53;;;;;;;;;;;;;;;;;;5302693;26;19934;-69
2024/04/27 09:13:21;;;;;;;;;;;;;;;;;;5304217;27;19938;-69
2024/04/27 09:15:50;;;;;;;;;;;;;;;;;;5301561;26;19931;-70
2024/04/27 09:18:19;;;;;;;;;;;;;;;;;;5304103;26;19941;-70
2024/04/27 09:20:47;;;;;;;;;;;;;;;;;;5304128;26;19946;-69
2024/04/27 09:23:16;;;;;;;;;;;;;;;;;;5302061;26;19942;-69
2024/04/27 09:25:45;;;;;;;;;;;;;;;;;;5304132;26;19934;-69
2024/04/27 09:28:13;;;;;;;;;;;;;;;;;;5303367;26;19935;-68
2024/04/27 09:30:42;;;;;;;;;;;;;;;;;;5301806;27;19942;-70
2024/04/27 09:33:11;;;;;;;;;;;;;;;;;;5304295;27;20030;-68
2024/04/27 09:35:39;;;;;;;;;;;;;;;;;;5303725;27;20380;-69
2024/04/27 09:38:09;;;;;;;;;;;;;;;;;;5302204;27;20273;-68
2024/04/27 09:40:38;;;;;;;;;;;;;;;;;;5303169;26;19939;-68
2024/04/27 09:43:06;;;;;;;;;;;;;;;;;;5302718;26;19938;-69
2024/04/27 09:45:35;;;;;;;;;;;;;;;;;;5301440;26;19945;-68
2024/04/27 09:48:04;;;;;;;;;;;;;;;;;;5301014;26;19938;-68
2024/04/27 09:50:32;;;;;;;;;;;;;;;;;;5308592;26;19946;-67
2024/04/27 09:52:58;;;;;;;;;;;;;;;;;;5302661;26;20432;-68
2024/04/27 09:55:27;;;;;;;;;;;;;;;;;;5301521;26;19950;-68
2024/04/27 09:57:56;;;;;;;;;;;;;;;;;;5300474;26;20293;-68
2024/04/27 10:00:24;;;;;;;;;;;;;;;;;;5299287;27;19981;-68
2024/04/27 10:02:53;;;;;;;;;;;;;;;;;;5299080;27;19930;-69
2024/04/27 10:05:22;;;;;;;;;;;;;;;;;;5302677;26;19930;-69
2024/04/27 10:07:50;;;;;;;;;;;;;;;;;;5303163;27;19938;-69
2024/04/27 10:10:20;;;;;;;;;;;;;;;;;;5302198;27;20258;-69
2024/04/27 10:12:49;;;;;;;;;;;;;;;;;;5300832;26;19939;-69
2024/04/27 10:15:17;;;;;;;;;;;;;;;;;;5302037;26;20380;-70
2024/04/27 10:17:46;;;;;;;;;;;;;;;;;;5302163;27;19937;-69
2024/04/27 10:20:15;;;;;;;;;;;;;;;;;;5303278;27;20046;-69
2024/04/27 10:22:43;;;;;;;;;;;;;;;;;;5302807;26;19935;-69
2024/04/27 10:25:13;;;;;;;;;;;;;;;;;;5300370;26;19945;-69
2024/04/27 10:27:42;;;;;;;;;;;;;;;;;;5301568;27;19937;-68
2024/04/27 10:30:11;;;;;;;;;;;;;;;;;;5300277;26;19941;-68
2024/04/27 10:32:39;;;;;;;;;;;;;;;;;;5302752;26;20267;-69
2024/04/27 10:35:08;;;;;;;;;;;;;;;;;;5296816;27;20435;-69
2024/04/27 10:37:37;;;;;;;;;;;;;;;;;;5301142;27;19930;-68
2024/04/27 10:40:07;;;;;;;;;;;;;;;;;;5302782;27;19937;-68
2024/04/27 10:42:36;;;;;;;;;;;;;;;;;;5302630;27;20262;-69
2024/04/27 10:45:05;;;;;;;;;;;;;;;;;;5303084;26;20395;-69
2024/04/27 10:47:33;;;;;;;;;;;;;;;;;;5297827;26;19930;-69
2024/04/27 10:50:02;;;;;;;;;;;;;;;;;;5296593;26;19938;-68
2024/04/27 10:52:31;;;;;;;;;;;;;;;;;;5302790;26;19937;-69
2024/04/27 10:54:59;;;;;;;;;;;;;;;;;;5301444;26;19937;-69
2024/04/27 10:57:28;;;;;;;;;;;;;;;;;;5298269;26;20026;-69
2024/04/27 10:59:57;;;;;;;;;;;;;;;;;;5300237;26;20003;-68
2024/04/27 11:02:25;;;;;;;;;;;;;;;;;;5299286;27;19998;-69
2024/04/27 11:04:54;;;;;;;;;;;;;;;;;;5300595;27;19933;-70
2024/04/27 11:07:23;;;;;;;;;;;;;;;;;;5299740;26;19931;-68
2024/04/27 11:09:52;;;;;;;;;;;;;;;;;;5301651;27;20472;-70
2024/04/27 11:12:20;;;;;;;;;;;;;;;;;;5302461;27;19931;-70
2024/04/27 11:14:49;;;;;;;;;;;;;;;;;;5293697;27;19938;-69
2024/04/27 11:17:18;;;;;;;;;;;;;;;;;;5296278;26;20395;-69
2024/04/27 11:19:46;;;;;;;;;;;;;;;;;;5302257;26;20017;-71
2024/04/27 11:22:15;;;;;;;;;;;;;;;;;;5298570;26;20053;-69
2024/04/27 11:24:44;;;;;;;;;;;;;;;;;;5302676;26;19930;-69
2024/04/27 11:27:13;;;;;;;;;;;;;;;;;;5301081;26;20377;-68
2024/04/27 11:29:42;;;;;;;;;;;;;;;;;;5300998;27;19937;-70
2024/04/27 11:32:10;;;;;;;;;;;;;;;;;;5303024;26;19931;-70
2024/04/27 11:34:39;;;;;;;;;;;;;;;;;;5302518;27;19931;-70
2024/04/27 11:37:08;;;;;;;;;;;;;;;;;;5298334;26;20404;-70
2024/04/27 11:39:37;;;;;;;;;;;;;;;;;;5304250;27;20250;-71
2024/04/27 11:42:05;;;;;;;;;;;;;;;;;;5298546;27;19942;-70
2024/04/27 11:44:34;;;;;;;;;;;;;;;;;;5303580;27;19930;-70
2024/04/27 11:47:03;;;;;;;;;;;;;;;;;;5312148;26;19941;-72
2024/04/27 11:49:31;;;;;;;;;;;;;;;;;;5301187;26;20349;-71
2024/04/27 11:52:01;;;;;;;;;;;;;;;;;;5301774;26;19930;-69
2024/04/27 11:54:30;;;;;;;;;;;;;;;;;;5305118;26;19946;-71
2024/04/27 11:56:59;;;;;;;;;;;;;;;;;;5303565;26;19939;-67
2024/04/27 11:59:27;;;;;;;;;;;;;;;;;;5304523;26;19941;-70
2024/04/27 12:01:56;;;;;;;;;;;;;;;;;;5304084;27;19930;-70
2024/04/27 12:04:25;;;;;;;;;;;;;;;;;;5302643;27;19935;-69
2024/04/27 12:06:54;;;;;;;;;;;;;;;;;;5303869;26;19931;-70
2024/04/27 12:09:22;;;;;;;;;;;;;;;;;;5304424;26;19935;-70
2024/04/27 12:11:51;;;;;;;;;;;;;;;;;;5305298;26;19930;-69
2024/04/27 12:14:20;;;;;;;;;;;;;;;;;;5303916;27;19930;-70
2024/04/27 12:16:49;;;;;;;;;;;;;;;;;;5304420;26;19934;-72
2024/04/27 12:19:17;;;;;;;;;;;;;;;;;;5300739;27;19938;-72
2024/04/27 12:21:46;;;;;;;;;;;;;;;;;;5301340;26;20150;-71
2024/04/27 12:24:15;;;;;;;;;;;;;;;;;;5304141;26;19930;-69
2024/04/27 12:26:45;;;;;;;;;;;;;;;;;;5303873;27;19938;-71
2024/04/27 12:29:13;;;;;;;;;;;;;;;;;;5304263;27;19938;-70
2024/04/27 12:31:42;;;;;;;;;;;;;;;;;;5300554;27;19938;-70
2024/04/27 12:34:12;;;;;;;;;;;;;;;;;;5304744;26;19934;-70
2024/04/27 12:36:40;;;;;;;;;;;;;;;;;;5292009;27;19938;-70
2024/04/27 12:39:09;;;;;;;;;;;;;;;;;;5305077;26;19946;-73
2024/04/27 12:41:38;;;;;;;;;;;;;;;;;;5297378;27;19938;-69
2024/04/27 12:44:06;;;;;;;;;;;;;;;;;;5301965;26;19931;-70
2024/04/27 12:46:35;;;;;;;;;;;;;;;;;;5299573;27;19980;-70
2024/04/27 12:49:04;;;;;;;;;;;;;;;;;;5305947;26;19954;-70
2024/04/27 12:51:32;;;;;;;;;;;;;;;;;;5304362;26;20448;-71
2024/04/27 12:54:01;;;;;;;;;;;;;;;;;;5302629;27;19962;-71
2024/04/27 12:56:30;;;;;;;;;;;;;;;;;;5306115;27;19945;-71
2024/04/27 12:58:59;;;;;;;;;;;;;;;;;;5302780;26;19931;-72
2024/04/27 13:01:27;;;;;;;;;;;;;;;;;;5304610;27;19930;-71
2024/04/27 13:03:57;;;;;;;;;;;;;;;;;;5299217;27;20480;-72
2024/04/27 13:06:26;;;;;;;;;;;;;;;;;;5303687;27;19937;-71
2024/04/27 13:08:54;;;;;;;;;;;;;;;;;;5296257;27;19963;-71
2024/04/27 13:11:23;;;;;;;;;;;;;;;;;;5303973;26;19930;-72
2024/04/27 13:13:52;;;;;;;;;;;;;;;;;;5303687;27;19931;-71
2024/04/27 13:16:21;;;;;;;;;;;;;;;;;;5305267;26;20281;-71
2024/04/27 13:18:50;;;;;;;;;;;;;;;;;;5301500;26;19930;-71
2024/04/27 13:21:18;;;;;;;;;;;;;;;;;;5305773;27;20062;-71
2024/04/27 13:23:47;;;;;;;;;;;;;;;;;;5300181;27;19946;-71
2024/04/27 13:26:16;;;;;;;;;;;;;;;;;;5299552;26;19938;-71
2024/04/27 13:28:44;;;;;;;;;;;;;;;;;;5301072;26;19930;-71
2024/04/27 13:31:13;;;;;;;;;;;;;;;;;;5304798;27;20619;-72
2024/04/27 13:33:42;;;;;;;;;;;;;;;;;;5303144;26;19938;-70
2024/04/27 13:36:10;;;;;;;;;;;;;;;;;;5302412;26;19931;-71
2024/04/27 13:38:39;;;;;;;;;;;;;;;;;;5304106;27;19937;-71
2024/04/27 13:41:08;;;;;;;;;;;;;;;;;;5304047;26;19942;-72
2024/04/27 13:43:37;;;;;;;;;;;;;;;;;;5302219;26;20451;-71
2024/04/27 13:46:05;;;;;;;;;;;;;;;;;;5300652;27;20385;-73
2024/04/27 13:48:34;;;;;;;;;;;;;;;;;;5301139;26;19954;-71
2024/04/27 13:51:03;;;;;;;;;;;;;;;;;;5285353;27;19965;-71
2024/04/27 13:53:31;;;;;;;;;;;;;;;;;;5301544;26;19931;-71
2024/04/27 13:56:00;;;;;;;;;;;;;;;;;;5301526;27;19931;-71
2024/04/27 13:58:29;;;;;;;;;;;;;;;;;;5298468;27;19945;-72
2024/04/27 14:00:57;;;;;;;;;;;;;;;;;;5302014;26;19931;-71
2024/04/27 14:03:26;;;;;;;;;;;;;;;;;;5301355;26;19937;-71
2024/04/27 14:05:55;;;;;;;;;;;;;;;;;;5297510;27;20287;-71
2024/04/27 14:08:24;;;;;;;;;;;;;;;;;;5297147;26;19946;-71
2024/04/27 14:10:53;;;;;;;;;;;;;;;;;;5301400;27;19942;-72
2024/04/27 14:13:22;;;;;;;;;;;;;;;;;;5292838;26;19938;-71
2024/04/27 14:15:51;;;;;;;;;;;;;;;;;;5300658;27;20277;-72
2024/04/27 14:18:19;;;;;;;;;;;;;;;;;;5289877;27;19930;-72
2024/04/27 14:20:48;;;;;;;;;;;;;;;;;;5302069;27;19930;-72
2024/04/27 14:23:17;;;;;;;;;;;;;;;;;;5299323;27;20270;-70
2024/04/27 14:25:46;;;;;;;;;;;;;;;;;;5300704;26;19930;-71
2024/04/27 14:28:14;;;;;;;;;;;;;;;;;;5309030;26;19931;-71
2024/04/27 14:30:44;;;;;;;;;;;;;;;;;;5298929;27;19938;-71
2024/04/27 14:33:13;;;;;;;;;;;;;;;;;;5300241;27;20047;-71
2024/04/27 14:35:41;;;;;;;;;;;;;;;;;;5278455;27;20415;-70
2024/04/27 14:38:10;;;;;;;;;;;;;;;;;;5298385;26;19931;-70
2024/04/27 14:40:39;;;;;;;;;;;;;;;;;;5299171;27;19939;-71
2024/04/27 14:43:08;;;;;;;;;;;;;;;;;;5301000;26;20390;-70
2024/04/27 14:45:36;;;;;;;;;;;;;;;;;;5302730;27;20641;-72
2024/04/27 14:48:06;;;;;;;;;;;;;;;;;;5301205;26;19938;-70
2024/04/27 14:50:35;;;;;;;;;;;;;;;;;;5302237;27;19946;-70
2024/04/27 14:53:03;;;;;;;;;;;;;;;;;;5302270;26;19937;-71
2024/04/27 14:55:32;;;;;;;;;;;;;;;;;;5284902;27;19938;-70
2024/04/27 14:58:01;;;;;;;;;;;;;;;;;;5296568;27;19931;-70
2024/04/27 15:00:29;;;;;;;;;;;;;;;;;;5303624;26;20011;-70
2024/04/27 15:02:58;;;;;;;;;;;;;;;;;;5303412;27;19947;-70
2024/04/27 15:05:27;;;;;;;;;;;;;;;;;;5298709;26;19941;-69
2024/04/27 15:07:56;;;;;;;;;;;;;;;;;;5303363;26;19930;-70
2024/04/27 15:10:24;;;;;;;;;;;;;;;;;;5299508;27;19930;-70
2024/04/27 15:12:53;;;;;;;;;;;;;;;;;;5301683;26;19930;-70
2024/04/27 15:15:22;;;;;;;;;;;;;;;;;;5300311;27;20277;-70
2024/04/27 15:17:51;;;;;;;;;;;;;;;;;;5302112;27;19940;-70
2024/04/27 15:20:20;;;;;;;;;;;;;;;;;;5301328;27;19946;-70
2024/04/27 15:22:49;;;;;;;;;;;;;;;;;;5285599;27;20384;-71
2024/04/27 15:25:18;;;;;;;;;;;;;;;;;;5300733;26;19938;-70
2024/04/27 15:27:46;;;;;;;;;;;;;;;;;;5297237;27;19938;-70
2024/04/27 15:30:15;;;;;;;;;;;;;;;;;;5297574;26;19930;-70
2024/04/27 15:32:44;;;;;;;;;;;;;;;;;;5299448;26;19931;-70
2024/04/27 15:35:12;;;;;;;;;;;;;;;;;;5301981;26;19942;-70
2024/04/27 15:37:41;;;;;;;;;;;;;;;;;;5291548;27;19931;-70
2024/04/27 15:40:10;;;;;;;;;;;;;;;;;;5295786;26;19937;-70
2024/04/27 15:42:38;;;;;;;;;;;;;;;;;;5301579;27;19930;-69
2024/04/27 15:45:07;;;;;;;;;;;;;;;;;;5294722;27;20269;-68
2024/04/27 15:47:36;;;;;;;;;;;;;;;;;;5300590;26;19938;-69
2024/04/27 15:50:04;;;;;;;;;;;;;;;;;;5300092;26;20386;-69
2024/04/27 15:52:33;;;;;;;;;;;;;;;;;;5301882;27;19931;-68
2024/04/27 15:55:02;;;;;;;;;;;;;;;;;;5299055;26;19931;-69
2024/04/27 15:57:30;;;;;;;;;;;;;;;;;;5299405;27;19930;-69
2024/04/27 15:59:59;;;;;;;;;;;;;;;;;;5297632;27;19930;-68
2024/04/27 16:02:28;;;;;;;;;;;;;;;;;;5301668;27;19934;-70
2024/04/27 16:04:56;;;;;;;;;;;;;;;;;;5297661;26;19946;-68
2024/04/27 16:07:25;;;;;;;;;;;;;;;;;;5299024;27;19941;-69
2024/04/27 16:09:54;;;;;;;;;;;;;;;;;;5300849;26;20356;-70
2024/04/27 16:12:22;;;;;;;;;;;;;;;;;;5300708;27;20300;-69
2024/04/27 16:14:51;;;;;;;;;;;;;;;;;;5301334;26;19931;-68
2024/04/27 16:17:20;;;;;;;;;;;;;;;;;;5286345;26;19931;-69
2024/04/27 16:19:48;;;;;;;;;;;;;;;;;;5301201;26;20435;-68
2024/04/27 16:22:17;;;;;;;;;;;;;;;;;;5304312;27;20049;-68
2024/04/27 16:24:46;;;;;;;;;;;;;;;;;;5304859;26;20012;-69
2024/04/27 16:27:15;;;;;;;;;;;;;;;;;;5294853;27;19938;-69
2024/04/27 16:29:43;;;;;;;;;;;;;;;;;;5292354;27;19931;-68
2024/04/27 16:32:12;;;;;;;;;;;;;;;;;;5304307;26;20290;-69
2024/04/27 16:34:41;;;;;;;;;;;;;;;;;;5304728;27;20050;-68
2024/04/27 16:37:09;;;;;;;;;;;;;;;;;;5288860;27;19931;-69
2024/04/27 16:39:38;;;;;;;;;;;;;;;;;;5292075;27;19930;-68
2024/04/27 16:42:07;;;;;;;;;;;;;;;;;;5304494;27;20439;-68
2024/04/27 16:44:36;;;;;;;;;;;;;;;;;;5305283;26;19930;-69
2024/04/27 16:47:04;;;;;;;;;;;;;;;;;;5307287;26;19938;-70
2024/04/27 16:49:33;;;;;;;;;;;;;;;;;;5307328;26;20388;-70
2024/04/27 16:52:03;;;;;;;;;;;;;;;;;;5302407;26;19930;-69
2024/04/27 16:54:32;;;;;;;;;;;;;;;;;;5306401;26;19966;-70
2024/04/27 16:57:00;;;;;;;;;;;;;;;;;;5306590;26;19930;-69
2024/04/27 16:59:29;;;;;;;;;;;;;;;;;;5302253;26;19930;-70
2024/04/27 17:01:58;;;;;;;;;;;;;;;;;;5305591;27;19931;-69